createdAt,value
2022-10-05T00:01:35.273Z,10.40
2022-10-05T00:04:19.544Z,10.40
2022-10-05T00:06:56.008Z,10.50
2022-10-05T00:09:23.092Z,10.40
2022-10-05T00:11:50.982Z,10.40
2022-10-05T00:14:27.700Z,10.30
2022-10-05T00:16:55.336Z,10.30
2022-10-05T00:19:38.966Z,10.20
2022-10-05T00:22:18.181Z,10.20
2022-10-05T00:24:46.452Z,10.10
2022-10-05T00:27:20.690Z,10.10
2022-10-05T00:29:48.915Z,10.00
2022-10-05T00:32:15.679Z,10.00
2022-10-05T00:34:43.224Z,10.00
2022-10-05T00:37:10.136Z,10.00
2022-10-05T00:39:39.193Z,9.90
2022-10-05T00:42:24.366Z,10.00
2022-10-05T00:45:15.929Z,10.00
2022-10-05T00:48:08.297Z,9.90
2022-10-05T00:50:53.034Z,9.90
2022-10-05T00:53:39.330Z,9.90
2022-10-05T00:56:26.332Z,9.90
2022-10-05T00:58:58.933Z,9.80
2022-10-05T01:01:57.772Z,9.70
2022-10-05T01:04:39.558Z,9.70
2022-10-05T01:07:23.427Z,9.70
2022-10-05T01:10:05.814Z,9.70
2022-10-05T01:12:50.961Z,9.70
2022-10-05T01:15:42.879Z,9.70
2022-10-05T01:18:27.828Z,9.70
2022-10-05T01:21:06.174Z,9.70
2022-10-05T01:23:40.313Z,9.70
2022-10-05T01:26:37.411Z,9.70
2022-10-05T01:29:33.109Z,9.70
2022-10-05T01:32:23.887Z,9.70
2022-10-05T01:34:54.255Z,9.70
2022-10-05T01:37:46.996Z,9.70
2022-10-05T01:40:33.847Z,9.80
2022-10-05T01:43:29.713Z,9.70
2022-10-05T01:46:25.672Z,9.70
2022-10-05T01:49:05.280Z,9.70
2022-10-05T01:52:02.136Z,9.70
2022-10-05T01:54:51.862Z,9.70
2022-10-05T01:57:37.317Z,9.60
2022-10-05T02:00:08.558Z,9.60
2022-10-05T02:02:39.852Z,9.60
2022-10-05T02:05:19.439Z,9.50
2022-10-05T02:07:51.895Z,9.50
2022-10-05T02:10:22.976Z,9.50
2022-10-05T02:12:54.749Z,9.40
2022-10-05T02:15:27.558Z,9.40
2022-10-05T02:18:01.629Z,9.40
2022-10-05T02:20:32.780Z,9.40
2022-10-05T02:23:04.940Z,9.30
2022-10-05T02:25:36.403Z,9.30
2022-10-05T02:28:20.450Z,9.30
2022-10-05T02:30:59.844Z,9.30
2022-10-05T02:33:31.938Z,9.20
2022-10-05T02:36:10.596Z,9.20
2022-10-05T02:38:52.838Z,9.20
2022-10-05T02:41:46.741Z,9.10
2022-10-05T02:44:22.425Z,9.10
2022-10-05T02:47:09.644Z,9.00
2022-10-05T02:49:56.786Z,8.90
2022-10-05T02:52:35.572Z,8.90
2022-10-05T02:55:30.504Z,8.90
2022-10-05T02:58:05.812Z,8.90
2022-10-05T03:00:39.728Z,8.90
2022-10-05T03:03:08.701Z,8.90
2022-10-05T03:05:46.364Z,8.90
2022-10-05T03:08:31.231Z,8.90
2022-10-05T03:11:11.214Z,8.90
2022-10-05T03:13:42.873Z,8.90
2022-10-05T03:16:40.293Z,8.80
2022-10-05T03:19:12.932Z,8.90
2022-10-05T03:22:08.869Z,8.90
2022-10-05T03:24:41.182Z,8.90
2022-10-05T03:27:36.654Z,9.00
2022-10-05T03:30:16.573Z,9.00
2022-10-05T03:32:43.146Z,9.00
2022-10-05T03:35:57.575Z,9.10
2022-10-05T03:38:58.745Z,9.10
2022-10-05T03:41:49.873Z,9.10
2022-10-05T03:44:45.173Z,9.10
2022-10-05T03:47:33.037Z,9.20
2022-10-05T03:50:15.256Z,9.20
2022-10-05T03:52:48.978Z,9.30
2022-10-05T03:56:04.636Z,9.40
2022-10-05T03:58:53.792Z,9.40
2022-10-05T04:01:29.822Z,9.40
2022-10-05T04:04:01.426Z,9.40
2022-10-05T04:06:33.054Z,9.40
2022-10-05T04:09:21.091Z,9.50
2022-10-05T04:12:02.195Z,9.50
2022-10-05T04:14:34.872Z,9.60
2022-10-05T04:17:15.560Z,9.60
2022-10-05T04:19:57.815Z,9.60
2022-10-05T04:22:38.581Z,9.60
2022-10-05T04:25:21.947Z,9.70
2022-10-05T04:28:31.038Z,9.70
2022-10-05T04:31:00.335Z,9.80
2022-10-05T04:33:27.649Z,9.70
2022-10-05T04:36:16.773Z,9.70
2022-10-05T04:39:21.244Z,9.70
2022-10-05T04:42:00.679Z,9.80
2022-10-05T04:44:55.841Z,9.80
2022-10-05T04:47:47.856Z,9.80
2022-10-05T04:50:36.379Z,9.80
2022-10-05T04:53:36.886Z,9.80
2022-10-05T04:56:11.667Z,9.80
2022-10-05T04:59:05.438Z,9.70
2022-10-05T05:01:45.314Z,9.70
2022-10-05T05:04:49.495Z,9.80
2022-10-05T05:07:42.808Z,9.70
2022-10-05T05:10:51.877Z,9.70
2022-10-05T05:13:47.720Z,9.70
2022-10-05T05:16:37.418Z,9.70
2022-10-05T05:19:19.361Z,9.70
2022-10-05T05:22:00.064Z,9.70
2022-10-05T05:24:47.336Z,9.70
2022-10-05T05:27:51.091Z,9.70
2022-10-05T05:30:23.565Z,9.70
2022-10-05T05:33:20.277Z,9.70
2022-10-05T05:36:22.198Z,9.80
2022-10-05T05:39:21.802Z,9.80
2022-10-05T05:42:17.682Z,9.80
2022-10-05T05:44:51.910Z,9.90
2022-10-05T05:47:40.996Z,10.00
2022-10-05T05:50:41.714Z,10.00
2022-10-05T05:53:29.530Z,10.00
2022-10-05T05:56:21.885Z,10.00
2022-10-05T05:59:02.275Z,10.00
2022-10-05T06:01:44.933Z,10.10
2022-10-05T06:04:43.687Z,10.10
2022-10-05T06:07:18.937Z,10.20
2022-10-05T06:10:00.294Z,10.20
2022-10-05T06:12:38.369Z,10.30
2022-10-05T06:15:28.568Z,10.40
2022-10-05T06:17:58.803Z,10.50
2022-10-05T06:20:28.309Z,10.50
2022-10-05T06:22:59.882Z,10.60
2022-10-05T06:26:01.753Z,10.60
2022-10-05T06:28:29.872Z,10.70
2022-10-05T06:31:12.553Z,10.70
2022-10-05T06:33:46.149Z,10.70
2022-10-05T06:36:41.666Z,10.80
2022-10-05T06:39:19.893Z,10.80
2022-10-05T06:42:31.416Z,10.90
2022-10-05T06:45:25.785Z,11.00
2022-10-05T06:48:05.342Z,11.00
2022-10-05T06:50:50.485Z,11.10
2022-10-05T06:53:29.159Z,11.10
2022-10-05T06:56:17.401Z,11.20
2022-10-05T06:59:12.105Z,11.20
2022-10-05T07:02:04.865Z,11.30
2022-10-05T07:05:25.418Z,11.40
2022-10-05T07:08:08.355Z,11.40
2022-10-05T07:10:45.328Z,11.50
2022-10-05T07:13:36.790Z,11.50
2022-10-05T07:16:09.979Z,11.50
2022-10-05T07:18:57.696Z,11.60
2022-10-05T07:21:52.812Z,11.70
2022-10-05T07:25:01.708Z,11.80
2022-10-05T07:27:37.745Z,11.80
2022-10-05T07:30:11.586Z,11.90
2022-10-05T07:33:12.122Z,11.90
2022-10-05T07:36:14.067Z,11.90
2022-10-05T07:38:51.266Z,12.00
2022-10-05T07:41:47.766Z,12.00
2022-10-05T07:44:36.996Z,12.00
2022-10-05T07:47:15.216Z,12.00
2022-10-05T07:50:02.536Z,12.00
2022-10-05T07:52:37.258Z,12.10
2022-10-05T07:55:06.866Z,12.10
2022-10-05T07:57:46.528Z,12.20
2022-10-05T08:00:23.893Z,12.30
2022-10-05T08:02:59.956Z,12.50
2022-10-05T08:05:30.138Z,12.60
2022-10-05T08:08:14.307Z,12.80
2022-10-05T08:10:51.964Z,12.90
2022-10-05T08:14:06.906Z,13.00
2022-10-05T08:16:38.291Z,13.10
2022-10-05T08:19:22.079Z,13.30
2022-10-05T08:22:00.587Z,13.40
2022-10-05T08:25:13.138Z,13.50
2022-10-05T08:27:50.808Z,13.70
2022-10-05T08:30:17.858Z,13.80
2022-10-05T08:32:47.521Z,14.00
2022-10-05T08:35:28.250Z,14.10
2022-10-05T08:37:55.924Z,14.20
2022-10-05T08:40:51.634Z,14.30
2022-10-05T08:43:47.746Z,14.50
2022-10-05T08:46:45.076Z,14.60
2022-10-05T08:49:55.259Z,14.70
2022-10-05T08:52:29.193Z,14.90
2022-10-05T08:55:40.120Z,15.00
2022-10-05T08:58:37.524Z,15.10
2022-10-05T09:01:04.189Z,15.10
2022-10-05T09:04:04.404Z,15.10
2022-10-05T09:06:57.218Z,15.20
2022-10-05T09:10:02.089Z,15.30
2022-10-05T09:12:59.407Z,15.30
2022-10-05T09:15:51.560Z,15.40
2022-10-05T09:18:50.331Z,15.50
2022-10-05T09:21:50.512Z,15.60
2022-10-05T09:24:42.029Z,15.70
2022-10-05T09:27:15.960Z,15.80
2022-10-05T09:29:55.709Z,15.90
2022-10-05T09:32:52.031Z,15.90
2022-10-05T09:35:54.917Z,16.00
2022-10-05T09:38:46.024Z,16.10
2022-10-05T09:41:53.165Z,16.20
2022-10-05T09:44:45.652Z,16.20
2022-10-05T09:47:22.168Z,16.30
2022-10-05T09:50:12.008Z,16.30
2022-10-05T09:53:00.588Z,16.40
2022-10-05T09:55:35.985Z,16.40
2022-10-05T09:58:29.413Z,16.50
2022-10-05T10:01:29.007Z,16.50
2022-10-05T10:04:20.363Z,16.60
2022-10-05T10:06:52.486Z,16.70
2022-10-05T10:09:38.799Z,16.70
2022-10-05T10:12:17.786Z,16.90
2022-10-05T10:14:53.204Z,17.00
2022-10-05T10:17:43.803Z,17.00
2022-10-05T10:20:16.153Z,17.10
2022-10-05T10:22:51.648Z,17.20
2022-10-05T10:26:01.300Z,17.20
2022-10-05T10:28:35.611Z,17.30
2022-10-05T10:31:33.931Z,17.30
2022-10-05T10:34:19.360Z,17.30
2022-10-05T10:37:12.745Z,17.30
2022-10-05T10:40:05.225Z,17.40
2022-10-05T10:42:50.322Z,17.30
2022-10-05T10:45:25.185Z,17.40
2022-10-05T10:48:08.303Z,17.40
2022-10-05T10:51:01.501Z,17.40
2022-10-05T10:54:05.924Z,17.40
2022-10-05T10:56:53.129Z,17.40
2022-10-05T10:59:26.577Z,17.40
2022-10-05T11:02:14.747Z,17.40
2022-10-05T11:05:03.391Z,17.50
2022-10-05T11:08:15.147Z,17.60
2022-10-05T11:11:08.503Z,17.60
2022-10-05T11:13:40.782Z,17.60
2022-10-05T11:16:26.362Z,17.70
2022-10-05T11:19:40.427Z,17.80
2022-10-05T11:22:41.253Z,18.00
2022-10-05T11:25:28.678Z,18.50
2022-10-05T11:28:27.648Z,18.60
2022-10-05T11:31:01.746Z,18.50
2022-10-05T11:33:48.205Z,18.50
2022-10-05T11:36:37.685Z,18.80
2022-10-05T11:39:47.779Z,19.20
2022-10-05T11:42:46.260Z,19.80
2022-10-05T11:45:24.904Z,20.40
2022-10-05T11:48:17.556Z,20.70
2022-10-05T11:51:22.087Z,20.90
2022-10-05T11:54:09.866Z,21.20
2022-10-05T11:56:44.420Z,21.50
2022-10-05T11:59:30.124Z,21.80
2022-10-05T12:02:04.243Z,22.10
2022-10-05T12:04:56.209Z,21.80
2022-10-05T12:07:40.362Z,21.80
2022-10-05T12:10:17.448Z,21.20
2022-10-05T12:12:56.991Z,21.00
2022-10-05T12:15:29.181Z,20.60
2022-10-05T12:17:58.851Z,20.70
2022-10-05T12:20:40.797Z,20.70
2022-10-05T12:23:37.203Z,20.60
2022-10-05T12:26:14.978Z,20.70
2022-10-05T12:28:47.507Z,20.50
2022-10-05T12:31:50.794Z,20.50
2022-10-05T12:34:44.830Z,20.50
2022-10-05T12:37:37.295Z,20.40
2022-10-05T12:40:42.102Z,20.40
2022-10-05T12:43:30.376Z,20.50
2022-10-05T12:46:21.242Z,20.90
2022-10-05T12:49:26.126Z,21.40
2022-10-05T12:52:02.138Z,21.60
2022-10-05T12:54:49.473Z,21.90
2022-10-05T12:57:30.137Z,22.20
2022-10-05T12:59:57.260Z,22.40
2022-10-05T13:02:30.376Z,22.50
2022-10-05T13:05:15.777Z,22.40
2022-10-05T13:08:10.096Z,22.50
2022-10-05T13:10:43.321Z,22.60
2022-10-05T13:13:35.161Z,22.90
2022-10-05T13:16:23.347Z,23.20
2022-10-05T13:19:20.858Z,23.10
2022-10-05T13:21:55.219Z,23.10
2022-10-05T13:24:44.757Z,23.10
2022-10-05T13:27:22.107Z,23.30
2022-10-05T13:29:54.482Z,23.20
2022-10-05T13:32:26.023Z,22.90
2022-10-05T13:35:40.716Z,22.50
2022-10-05T13:38:38.549Z,22.00
2022-10-05T13:41:36.382Z,21.70
2022-10-05T13:44:27.682Z,21.80
2022-10-05T13:47:05.541Z,21.60
2022-10-05T13:52:46.941Z,22.00
2022-10-05T13:55:22.817Z,22.40
2022-10-05T13:58:03.405Z,22.80
2022-10-05T14:00:31.413Z,23.30
2022-10-05T14:03:01.072Z,23.60
2022-10-05T14:05:30.614Z,23.90
2022-10-05T14:08:04.878Z,24.10
2022-10-05T14:10:47.330Z,24.30
2022-10-05T14:13:46.762Z,24.10
2022-10-05T14:16:13.441Z,24.00
2022-10-05T14:19:06.516Z,23.90
2022-10-05T14:22:02.958Z,23.90
2022-10-05T14:24:44.737Z,23.70
2022-10-05T14:27:20.897Z,23.60
2022-10-05T14:30:26.872Z,23.70
2022-10-05T14:32:59.084Z,23.60
2022-10-05T14:35:30.112Z,23.40
2022-10-05T14:38:21.541Z,23.00
2022-10-05T14:41:19.812Z,22.90
2022-10-05T14:44:04.753Z,23.00
2022-10-05T14:46:32.977Z,22.90
2022-10-05T14:49:25.861Z,23.10
2022-10-05T14:51:53.968Z,23.10
2022-10-05T14:54:29.594Z,23.30
2022-10-05T14:57:32.140Z,23.40
2022-10-05T15:00:02.640Z,23.50
2022-10-05T15:03:03.634Z,23.40
2022-10-05T15:05:44.781Z,23.30
2022-10-05T15:08:26.106Z,23.20
2022-10-05T15:11:13.388Z,23.10
2022-10-05T15:13:45.134Z,23.20
2022-10-05T15:16:30.989Z,23.10
2022-10-05T15:19:46.776Z,23.20
2022-10-05T15:22:33.965Z,23.00
2022-10-05T15:25:15.622Z,22.50
2022-10-05T15:28:08.553Z,22.20
2022-10-05T15:30:41.008Z,22.10
2022-10-05T15:33:23.838Z,21.80
2022-10-05T15:36:00.661Z,21.70
2022-10-05T15:39:06.149Z,21.60
2022-10-05T15:41:58.932Z,21.40
2022-10-05T15:44:36.954Z,21.30
2022-10-05T15:47:07.410Z,21.20
2022-10-05T15:49:40.009Z,21.00
2022-10-05T15:52:25.037Z,21.00
2022-10-05T15:55:05.604Z,20.90
2022-10-05T15:58:09.819Z,20.70
2022-10-05T16:00:44.845Z,20.60
2022-10-05T16:03:25.664Z,20.50
2022-10-05T16:06:18.357Z,20.30
2022-10-05T16:09:17.864Z,20.10
2022-10-05T16:11:56.461Z,19.90
2022-10-05T16:14:41.719Z,19.70
2022-10-05T16:17:33.237Z,19.40
2022-10-05T16:20:38.925Z,19.20
2022-10-05T16:23:37.098Z,19.10
2022-10-05T16:26:20.737Z,19.00
2022-10-05T16:29:13.044Z,18.70
2022-10-05T16:32:02.532Z,18.50
2022-10-05T16:34:36.529Z,18.30
2022-10-05T16:37:31.974Z,18.20
2022-10-05T16:40:42.748Z,18.00
2022-10-05T16:43:25.704Z,17.90
2022-10-05T16:46:03.235Z,17.70
2022-10-05T16:48:41.520Z,17.60
2022-10-05T16:51:28.454Z,17.50
2022-10-05T16:54:20.173Z,17.30
2022-10-05T16:56:55.651Z,17.20
2022-10-05T16:59:56.402Z,17.10
2022-10-05T17:05:39.301Z,16.80
2022-10-05T17:08:18.677Z,16.70
2022-10-05T17:11:14.606Z,16.60
2022-10-05T17:14:09.955Z,16.50
2022-10-05T17:16:47.885Z,16.30
2022-10-05T17:19:46.686Z,16.20
2022-10-05T17:22:34.407Z,16.20
2022-10-05T17:25:11.144Z,16.10
2022-10-05T17:28:14.987Z,16.10
2022-10-05T17:30:55.201Z,16.00
2022-10-05T17:33:31.040Z,15.90
2022-10-05T17:36:04.867Z,15.80
2022-10-05T17:38:31.519Z,15.70
2022-10-05T17:41:03.012Z,15.60
2022-10-05T17:43:31.753Z,15.50
2022-10-05T17:46:09.746Z,15.40
2022-10-05T17:48:48.353Z,15.40
2022-10-05T17:51:48.892Z,15.40
2022-10-05T17:54:48.142Z,15.30
2022-10-05T17:57:20.294Z,15.20
2022-10-05T18:00:01.829Z,15.10
2022-10-05T18:02:42.786Z,15.00
2022-10-05T18:05:12.080Z,14.90
2022-10-05T18:08:08.663Z,14.90
2022-10-05T18:10:40.469Z,14.80
2022-10-05T18:13:38.258Z,14.70
2022-10-05T18:16:05.385Z,14.60
2022-10-05T18:18:54.795Z,14.50
2022-10-05T18:21:29.627Z,14.40
2022-10-05T18:23:58.910Z,14.20
2022-10-05T18:26:32.587Z,14.10
2022-10-05T18:29:40.721Z,14.10
2022-10-05T18:32:21.827Z,14.00
2022-10-05T18:35:07.108Z,13.90
2022-10-05T18:38:11.339Z,13.90
2022-10-05T18:41:10.246Z,13.80
2022-10-05T18:43:48.945Z,13.80
2022-10-05T18:46:27.572Z,13.80
2022-10-05T18:49:10.553Z,13.80
2022-10-05T18:52:01.245Z,13.80
2022-10-05T18:54:33.711Z,13.80
2022-10-05T18:57:27.861Z,13.80
2022-10-05T19:00:02.017Z,13.90
2022-10-05T19:02:51.895Z,14.00
2022-10-05T19:05:47.565Z,14.00
2022-10-05T19:08:30.163Z,14.10
2022-10-05T19:11:16.774Z,14.20
2022-10-05T19:14:10.340Z,14.20
2022-10-05T19:17:02.631Z,14.20
2022-10-05T19:19:59.985Z,14.20
2022-10-05T19:23:12.450Z,14.20
2022-10-05T19:25:54.828Z,14.20
2022-10-05T19:28:38.556Z,14.30
2022-10-05T19:31:28.862Z,14.50
2022-10-05T19:34:16.416Z,14.80
2022-10-05T19:36:48.775Z,15.00
2022-10-05T19:39:18.519Z,15.20
2022-10-05T19:41:57.806Z,15.30
2022-10-05T19:44:47.654Z,15.40
2022-10-05T19:47:35.372Z,15.50
2022-10-05T19:50:21.806Z,15.60
2022-10-05T19:52:51.830Z,15.70
2022-10-05T19:55:35.016Z,15.60
2022-10-05T19:58:01.776Z,15.30
2022-10-05T20:00:34.582Z,15.10
2022-10-05T20:03:11.906Z,14.90
2022-10-05T20:05:39.584Z,14.80
2022-10-05T20:08:07.624Z,14.60
2022-10-05T20:10:34.498Z,14.50
2022-10-05T20:13:03.237Z,14.40
2022-10-05T20:15:53.222Z,14.30
2022-10-05T20:19:02.952Z,14.20
2022-10-05T20:21:41.657Z,14.20
2022-10-05T20:24:13.127Z,14.20
2022-10-05T20:27:00.582Z,14.20
2022-10-05T20:29:27.414Z,14.20
2022-10-05T20:31:54.260Z,14.20
2022-10-05T20:34:24.284Z,14.20
2022-10-05T20:36:51.621Z,14.20
2022-10-05T20:39:19.165Z,14.20
2022-10-05T20:41:46.148Z,14.20
2022-10-05T20:44:13.325Z,14.20
2022-10-05T20:46:43.095Z,14.30
2022-10-05T20:49:13.173Z,14.40
2022-10-05T20:51:40.246Z,14.60
2022-10-05T20:54:07.734Z,14.50
2022-10-05T20:56:34.526Z,14.60
2022-10-05T20:59:01.122Z,14.60
2022-10-05T21:01:28.993Z,14.70
2022-10-05T21:03:55.842Z,14.70
2022-10-05T21:06:22.735Z,14.70
2022-10-05T21:08:51.345Z,14.70
2022-10-05T21:11:18.370Z,14.70
2022-10-05T21:13:45.383Z,14.70
2022-10-05T21:16:17.330Z,14.70
2022-10-05T21:18:46.926Z,14.80
2022-10-05T21:21:15.491Z,14.80
2022-10-05T21:23:42.147Z,14.80
2022-10-05T21:26:08.779Z,14.80
2022-10-05T21:28:35.447Z,14.80
2022-10-05T21:31:02.132Z,14.90
2022-10-05T21:33:28.993Z,15.00
2022-10-05T21:35:55.799Z,15.00
2022-10-05T21:38:22.689Z,15.00
2022-10-05T21:40:49.312Z,15.00
2022-10-05T21:43:15.942Z,15.00
2022-10-05T21:45:43.549Z,15.00
2022-10-05T21:48:11.227Z,15.00
2022-10-05T21:50:38.588Z,15.00
2022-10-05T21:53:08.705Z,14.90
2022-10-05T21:55:39.371Z,14.90
2022-10-05T21:58:06.112Z,14.90
2022-10-05T22:00:32.923Z,15.00
2022-10-05T22:02:59.563Z,15.00
2022-10-05T22:05:26.236Z,15.10
2022-10-05T22:07:54.058Z,15.10
2022-10-05T22:10:20.753Z,15.20
2022-10-05T22:12:47.554Z,15.20
2022-10-05T22:15:14.723Z,15.20
2022-10-05T22:17:42.179Z,15.20
2022-10-05T22:20:14.444Z,15.30
2022-10-05T22:22:41.096Z,15.30
2022-10-05T22:25:08.161Z,15.40
2022-10-05T22:27:35.728Z,15.30
2022-10-05T22:30:03.705Z,15.20
2022-10-05T22:32:30.341Z,15.30
2022-10-05T22:34:57.266Z,15.20
2022-10-05T22:37:24.160Z,15.20
2022-10-05T22:39:50.804Z,15.20
2022-10-05T22:42:17.462Z,15.10
2022-10-05T22:44:44.137Z,15.10
2022-10-05T22:47:10.783Z,15.10
2022-10-05T22:49:37.493Z,15.10
2022-10-05T22:52:04.344Z,15.00
2022-10-05T22:54:33.347Z,15.00
2022-10-05T22:57:03.273Z,15.00
2022-10-05T22:59:30.949Z,15.00
2022-10-05T23:01:57.950Z,15.10
2022-10-05T23:04:24.987Z,15.00
2022-10-05T23:06:51.800Z,15.00
2022-10-05T23:09:18.792Z,14.90
2022-10-05T23:11:46.848Z,14.90
2022-10-05T23:14:13.716Z,14.90
2022-10-05T23:16:40.349Z,14.80
2022-10-05T23:19:07.027Z,14.80
2022-10-05T23:21:33.709Z,14.70
2022-10-05T23:24:00.328Z,14.80
2022-10-05T23:26:27.066Z,14.80
2022-10-05T23:28:53.974Z,14.70
2022-10-05T23:31:23.595Z,14.70
2022-10-05T23:33:51.301Z,14.80
2022-10-05T23:36:21.766Z,14.80
2022-10-05T23:38:48.725Z,14.80
2022-10-05T23:41:16.308Z,14.80
2022-10-05T23:43:43.751Z,14.90
2022-10-05T23:46:10.459Z,14.80
2022-10-05T23:48:38.050Z,14.80
2022-10-05T23:51:09.992Z,14.70
2022-10-05T23:53:37.060Z,14.70
2022-10-05T23:56:04.440Z,14.60
2022-10-05T23:58:31.530Z,14.60
